• Join FlightAware (Why Join?)
  • Login
  • US Flag 
07:49PM EDT


 

Airport Tracker/Info


-or-


 

Live Flight TrackerFlight Track Log ✈ JBU917 ✈ 06-May-2013 ✈ KJFK - KORD

Flight Track Log - Related Links

Times and Time Zones

All times are in EDT time to prevent confusion due to time zone crossing. See the JBU917 flight status page for this flight to view local times or setup timezone preferences in your user account.

Time Position Orientation Groundspeed Altitude Reporting Facility
EDT Latitude Longitude Course Direction KTS MPH feet Rate Location/Type
08:57PM 40.6667 -73.6667 270° West 248 285 3,900  Level New York TRACON
08:58PM 40.7167 -73.6000 45° Northeast 272 313 7,200 3,000 Climbing New York TRACON
08:59PM 40.9377 -74.3467 306° West  Level FlightAware Approximate
08:59PM 40.7833 -73.5333 37° Northeast 287 330 10,000  Level New York TRACON
09:00PM 41.0046 -74.4593 304° West  Level FlightAware Approximate
09:01PM 41.0525 -74.5410 294° West  Level FlightAware Approximate
09:01PM 40.9364 -73.6800 324° Northwest 387 445 14,400  Level New York Center
09:02PM 41.0959 -74.6272 312° West  Level FlightAware Approximate
09:02PM 41.0147 -73.7933 313° West 380 437 16,800  Level New York Center
09:03PM 41.1333 -74.7125 270° West  Level FlightAware Approximate
09:03PM 41.0364 -73.9208 283° West 380 437 17,000  Level New York Center
09:04PM 41.0589 -74.0814 281° West 393 452 18,600 1,680 Climbing New York Center
09:05PM 41.0758 -74.2200 279° West 393 452 20,400 1,860 Climbing New York Center
09:06PM 41.0944 -74.3667 280° West 398 458 22,400 1,500 Climbing New York Center
09:08PM 41.1040 -74.5482 279° West  Level FlightAware Approximate
09:08PM 41.1347 -74.6692 279° West 418 481 25,000  Level New York Center
09:10PM 41.1868 -74.8395 307° West  Level FlightAware Approximate
09:10PM 41.2403 -74.9344 307° West 423 487 26,300  Level New York Center
09:11PM 41.2997 -75.0736 300° West 429 494 27,500 1,140 Climbing New York Center
09:12PM 41.3592 -75.2128 300° West 435 501 28,700 1,080 Climbing New York Center
09:13PM 41.4206 -75.3553 300° West 440 506 29,800 1,320 Climbing New York Center
09:14PM 41.4775 -75.4975 298° West 440 506 31,300 1,380 Climbing New York Center
09:15PM 41.5289 -75.6647 292° West 440 506 32,600 1,020 Climbing New York Center
09:16PM 41.5650 -75.7947 290° West 435 501 33,400 960 Climbing New York Center
09:17PM 41.6086 -75.9478 291° West 430 495 34,500 960 Climbing New York Center
09:18PM 41.6500 -76.0928 291° West 435 501 35,400 720 Climbing New York Center
09:19PM 41.6911 -76.2403 291° West 435 501 36,000 180 Climbing New York Center
09:21PM 41.7379 -76.4200 289° West  Level FlightAware Approximate
09:21PM 41.7694 -76.5208 289° West 441 507 36,000  Level Cleveland Center
09:22PM 41.8100 -76.6742 290° West 441 507 36,000  Level Cleveland Center
09:23PM 41.8528 -76.8306 290° West 441 507 36,000  Level Cleveland Center
09:24PM 41.8928 -76.9678 291° West 441 507 36,000  Level Cleveland Center
09:25PM 41.9350 -77.1244 290° West 441 507 36,000  Level Cleveland Center
09:26PM 41.9772 -77.2814 290° West 441 507 36,000  Level Cleveland Center
09:27PM 42.0192 -77.4414 289° West 447 514 36,000  Level Cleveland Center
09:28PM 42.0589 -77.5961 289° West 447 514 36,000  Level Cleveland Center
09:29PM 42.1025 -77.7536 291° West 447 514 36,000  Level Cleveland Center
09:30PM 42.1436 -77.9144 289° West 447 514 36,000  Level Cleveland Center
09:31PM 42.1847 -78.0694 290° West 447 514 36,000  Level Cleveland Center
09:32PM 42.2256 -78.2306 289° West 447 514 36,000  Level Cleveland Center
09:33PM 42.2664 -78.3919 289° West 447 514 36,000  Level Cleveland Center
09:34PM 42.3089 -78.5475 290° West 447 514 36,000  Level Cleveland Center
09:35PM 42.3492 -78.7064 289° West 447 514 36,000  Level Cleveland Center
09:37PM 42.4269 -79.0278 288° West 447 514 36,000  Level Cleveland Center
09:38PM 42.4706 -79.1869 290° West 447 514 36,000  Level Cleveland Center
09:39PM 42.4953 -79.3528 281° West 452 520 36,000  Level Cleveland Center
09:40PM 42.5033 -79.5186 274° West 447 514 36,000  Level Cleveland Center
09:41PM 42.5131 -79.6875 275° West 447 514 36,000  Level Cleveland Center
09:43PM 42.5256 -80.0450 273° West 447 514 36,000  Level Cleveland Center
09:44PM 42.5347 -80.2142 274° West 458 527 36,000  Level Cleveland Center
09:45PM 42.5433 -80.3858 274° West 458 527 36,000  Level Cleveland Center
09:46PM 42.5478 -80.5522 272° West 458 527 36,000  Level Cleveland Center
09:47PM 42.5539 -80.7242 273° West 458 527 36,000  Level Cleveland Center
09:49PM 42.5675 -81.0681 273° West 458 527 36,000  Level Cleveland Center
09:50PM 42.5731 -81.2372 273° West 458 527 36,000  Level Cleveland Center
09:51PM 42.5803 -81.4094 273° West 458 527 36,000  Level Cleveland Center
09:52PM 42.6081 -81.5817 282° West 469 540 36,000  Level Cleveland Center
09:53PM 42.6356 -81.7486 281° West 458 527 36,000  Level Cleveland Center
09:54PM 42.6405 -81.8121 281° West  Level FlightAware Approximate
09:54PM 42.6631 -81.9158 283° West 458 527 36,000  Level Cleveland Center
09:56PM 42.6993 -82.1455 282° West  Level FlightAware Approximate
09:56PM 42.7211 -82.2533 282° West 458 527 36,000  Level Cleveland Center
09:58PM 42.7636 -82.5967 280° West 458 527 36,000  Level Cleveland Center
09:59PM 42.7750 -82.7669 275° West 458 527 36,000  Level Cleveland Center
10:01PM 42.7972 -83.1100 275° West 463 533 36,000  Level Cleveland Center
10:02PM 42.8078 -83.2858 275° West 463 533 36,000 -540 Level Cleveland Center
10:03PM 42.8203 -83.4564 276° West 463 533 35,000 -1,020 Descending Cleveland Center
10:05PM 42.8403 -83.8056 275° West 463 533 33,000 -1,020 Descending Cleveland Center
10:06PM 42.8478 -83.9817 273° West 463 533 32,000 -420 Descending Cleveland Center
10:07PM 42.8533 -84.2283 272° West 465 535 32,000  Level Chicago Center
10:08PM 42.8444 -84.4028 266° West 463 533 32,000  Level Chicago Center
10:10PM 42.8350 -84.6142 267° West 465 535 32,000  Level Chicago Center
10:11PM 42.8261 -84.7914 266° West 470 541 32,000  Level Chicago Center
10:12PM 42.8161 -84.9675 266° West 468 539 32,000  Level Chicago Center
10:13PM 42.8067 -85.1442 266° West 470 541 32,000  Level Chicago Center
10:14PM 42.7969 -85.3211 266° West 468 539 32,000 -420 Level Chicago Center
10:15PM 42.7850 -85.4992 265° West 472 543 31,200 -1,620 Descending Chicago Center
10:16PM 42.7550 -85.6725 257° West 469 540 28,700 -2,400 Descending Chicago Center
10:17PM 42.7256 -85.8369 256° West 450 518 26,300 -2,340 Descending Chicago Center
10:18PM 42.6975 -85.9953 256° West 432 497 24,000 -2,220 Descending Chicago Center
10:19PM 42.6689 -86.1469 256° West 416 479 21,800 -1,980 Descending Chicago Center
10:20PM 42.6428 -86.2914 256° West 398 458 20,000 -900 Descending Chicago Center
10:21PM 42.6142 -86.4331 255° West 389 448 20,000  Level Chicago Center
10:22PM 42.5886 -86.5775 257° West 393 452 20,000 -120 Level Chicago Center
10:23PM 42.5564 -86.7447 255° West 402 463 19,800 -1,320 Descending Chicago Center
10:24PM 42.5178 -86.8853 250° West 400 460 17,400 -2,460 Descending Chicago Center
10:25PM 42.4792 -87.0289 250° West 382 440 14,900 -2,400 Descending Chicago Center
10:26PM 42.4422 -87.1567 249° West 369 425 12,600 -2,280 Descending Chicago Center
10:27PM 42.4081 -87.2817 250° West 357 411 10,300 -1,320 Descending Chicago Center
10:28PM 42.3708 -87.4192 250° West 353 406 10,000 -180 Descending Chicago Center
10:29PM 42.3339 -87.5414 248° West 354 407 10,000  Level Chicago Center
10:30PM 42.2567 -87.6247 219° Southwest 357 411 10,000  Level Chicago Center
10:31PM 42.1789 -87.7028 217° Southwest 351 404 10,000 -360 Level Chicago Center
10:32PM 42.1131 -87.7742 219° Southwest 306 352 9,300 -1,260 Descending Chicago Center
10:33PM 42.1000 -87.8833 261° West 293 337 7,500 -1,200 Descending Chicago TRACON
10:34PM 42.1000 -87.9833 270° West 269 310 7,000 -300 Descending Chicago TRACON
10:35PM 42.1000 -88.0833 270° West 237 273 7,000 -600 Level Chicago TRACON
10:36PM 42.0833 -88.1667 255° West 236 272 5,800 -1,260 Descending Chicago TRACON
10:37PM 42.0347 -88.1928 202° Southwest 228 262 4,400 -1,320 Descending Chicago Center
10:38PM 41.9869 -88.1714 162° South 199 229 3,000 -780 Descending Chicago Center
10:39PM 41.9667 -88.1167 116° Southeast 189 217 3,000 -540 Level Chicago TRACON
10:41PM 41.9667 -87.9833 90° East 139 160 1,600 -720 Descending Chicago TRACON
10:42PM 41.9667 -87.9500 90° East 132 152 900 -720 Descending Chicago TRACON
10:44PM 41.9667 -87.9000 110° East  Level FlightAware Approximate